Aviation Digital Data Service (ADDS)

Output produced by METARs form (0251 UTC 22 November 2014)
found at http://aviationweather.gov/adds/metars/
 
KFAY 212325Z 2200/2224 VRB04KT P6SM FEW250